Montrose, Virginia
Current Conditions -  °F | °C
As of 8:54 PM on Wednesday 26 Nov 2014 (Local Time) from KRIC Reporting Station
Broken Clouds Broken Clouds  
Wind Chill: 35°   Ceiling: 6500
Heat Index: 40°   Visibility: 10mi
Dew Point: 36°   Wind: 7mph
Humidity: 86%   Direction: 290°WNW
Pressure: 30.01"   Gusts: NA
Location:  37.4458°N, 77.3237°W
Report Text: KRIC 270154Z 29006KT 10SM FEW012 SCT018 BKN065 04/02 A3001 RMK AO2 SLP169 T00440022
Loading
Personal Weather Stations






























Interactive Weather Map New forecast layout! Learn more

10-Day Weather Forecast

Advertisements
Track Severe Weather on mobile